KVOK/VOK METAR and TAF weather

Enter ICAO airport designator
Station Type Date Time Source
KVOK METAR 2018/12/13 09:26 UTC NOAA

KVOK 130926Z AUTO 00000KT 4SM BR OVC006 M02/M02 A2996 RMK AO2 CIG 004V006 SLP160


Station Type Date Time Source
KVOK Decoded METAR 2018/12/13 09:26 UTC NOAA

Volk / Camp Douglas, WI, United States (KVOK) 43-56N 090-16W
Dec 13, 2018 - 04:26 AM EST / 2018.12.13 0926 UTC
Wind: Calm:0
Visibility: 4 mile(s):0
Sky conditions: overcast
Weather: mist
Temperature: 28 F (-2 C)
Dew Point: 28 F (-2 C)
Relative Humidity: 100%
Pressure (altimeter): 29.96 in. Hg (1014 hPa)
ob: KVOK 130926Z AUTO 00000KT 4SM BR OVC006 M02/M02 A2996 RMK AO2 CIG 004V006 SLP160
cycle: 9

Station Type Date Time Source
KVOK TAF 2018/12/13 09:06 UTC NOAA

TAF KVOK 130900Z 1309/1415 22006KT 8000 BR OVC005 620053 QNH2980INS
BECMG 1314/1315 14006KT 6000 BR SCT090 QNH2998INS
BECMG 1321/1322 15006KT 9999 NSW BKN010 620102 QNH3009INS
BECMG 1402/1403 33006KT 9000 BR OVC005 620054 QNH3020INS TX03/1321Z TNM06/1309Z


Example: see airport list